KRBO

Details ICAO KRBO
Name NUECES CO
Region United States
Timezone America/Chicago (UTC-6.0)
Plans Departing 1
Arriving 2
Stats Elevation 79 ft / 24 m (AMSL)
Location 27.778544° -97.690525°
Runways 1
Magnetic Variation 3.835° E
Sunrise 2017-12-11 13:13:10 UTC / 2017-12-11 07:13:10 Local
Sunset 2017-12-11 23:38:01 UTC / 2017-12-11 17:38:01 Local
Advertisement - Login to hide

Runways

ID Width Length Bearing (true) Bearing (mag) Surface Threshold Offset Overrun Length
13 75 ft / 23 m 3,704 ft / 1,129 m 135.09° 131.26° Asphalt 0 ft / 0 m 0 ft / 0 m
31 75 ft / 23 m 3,704 ft / 1,129 m 315.09° 311.26° Asphalt 0 ft / 0 m 0 ft / 0 m

Map

Weather


0- 5 10 15 20 25 30 35+ Temperature / ° C

Clouds and Precipitation
Forecast for 2017-12-12 06:00 UTC. Updated 3 minutes ago

Ground ~20,000 ft ~40,000 ft Winds

METAR

KRBO 120315Z AUTO 19004KT 10SM CLR 13/10 A3024 RMK AO2 T01250096

TAF

Not found

Frequencies

Recorded 118.17 MHz AWOS 3
Approach 119.90 MHz KINGSVILLE APP
Unicom 122.90 MHz CTAF
Departure 120.90 MHz CORPUS DEP
Warning: Do not use this data for real-world aviation or navigation. No guarantee of current accuracy is given.